Terminal Aerodrome Forecast
Issued by NWS

Home | Current Version | Previous Version | Text Only | Print | Product List | Glossary On
Versions: 1 2 3 4 5 6 7 8 9 10 11 12 13 14 15 16 17 18 19 20 21 22 23 24 25 26
415
FTUS41 KPBZ 051336 AAA
TAFDUJ
TAF AMD
KDUJ 051336Z 0514/0612 26012G22KT P6SM SCT008 BKN015
      TEMPO 0514/0516 BKN008
     FM051600 27011G18KT P6SM OVC022
     FM052000 28006KT P6SM BKN035
     FM061100 11008KT P6SM BKN100=

USA.gov is the U.S. government's official web portal to all federal, state and local government web resources and services.